Joshua David Esper — WDD8059 — position and weather

sailwx.info

Track history (hours):
 
Tides and Currents Weather Stations Pressure Air Temp Water Temp Dewpoint Dewpoint Depression Visibility Wind Speed Wind Dir Waves Ship Positions

Joshua David Esper

Owner: Marquette Transportation Company LLC, Paducah, KY. More information available from US FCC via Universal Licensing System and Coast Guard Vessel Documentation Center.

Last reported at 2018-Jun-16 03:00 UTC. Time now 2018-Jun-18 15:41 UTC.
Position N 31°56' W 091°12'.

Length 42 m; draft 2.7 m.

Type: Tow > 200 m length. MMSI: 367194680.

Date/timePositionNaut miles runAvg speedWind from/ knotsBaromVisibWave heightAir tempDewpointWater temp
2018-Jun-16 03:00N 31°56' W 091°12'4 7.9
2018-Jun-16 02:29N 31°59' W 091°08'4 8.6
2018-Jun-16 02:00N 32°02' W 091°04'4 8.0
2018-Jun-16 01:28N 32°06' W 091°05'2 4.9
2018-Jun-16 01:00N 32°08' W 091°05'4 7.8
2018-Jun-16 00:30N 32°08' W 091°00'5 9.4
2018-Jun-16 00:00N 32°13' W 090°59'4 8.6
2018-Jun-15 23:30N 32°17' W 090°57'4 8.0
2018-Jun-15 23:00N 32°20' W 090°54'4 7.4
2018-Jun-15 22:30N 32°21' W 090°59'3 6.3
2018-Jun-15 22:00N 32°24' W 090°59'4 9.0
2018-Jun-15 21:30N 32°26' W 091°04'7 8.1
2018-Jun-15 20:41N 32°33' W 091°06'2 9.0
2018-Jun-15 20:30N 32°34' W 091°07'  
Track history (hours):
 
Tides and Currents Weather Stations Pressure Air Temp Water Temp Dewpoint Dewpoint Depression Visibility Wind Speed Wind Dir Waves Ship Positions

Joshua David Esper

Owner: Marquette Transportation Company LLC, Paducah, KY. More information available from US FCC via Universal Licensing System and Coast Guard Vessel Documentation Center.

Last reported at 2018-Jun-16 03:00 UTC. Time now 2018-Jun-18 15:41 UTC.
Position N 31°56' W 091°12'.

Length 42 m; draft 2.7 m.

Type: Tow > 200 m length. MMSI: 367194680.

Date/timePositionNaut miles runAvg speedWind from/ knotsBaromVisibWave heightAir tempDewpointWater temp
2018-Jun-16 03:00N 31°56' W 091°12'4 7.9
2018-Jun-16 02:29N 31°59' W 091°08'4 8.6
2018-Jun-16 02:00N 32°02' W 091°04'4 8.0
2018-Jun-16 01:28N 32°06' W 091°05'2 4.9
2018-Jun-16 01:00N 32°08' W 091°05'4 7.8
2018-Jun-16 00:30N 32°08' W 091°00'5 9.4
2018-Jun-16 00:00N 32°13' W 090°59'4 8.6
2018-Jun-15 23:30N 32°17' W 090°57'4 8.0
2018-Jun-15 23:00N 32°20' W 090°54'4 7.4
2018-Jun-15 22:30N 32°21' W 090°59'3 6.3
2018-Jun-15 22:00N 32°24' W 090°59'4 9.0
2018-Jun-15 21:30N 32°26' W 091°04'7 8.1
2018-Jun-15 20:41N 32°33' W 091°06'2 9.0
2018-Jun-15 20:30N 32°34' W 091°07'  

Dump ship's entire track history